Αρχική σελίδα
METAR-TAF:

METAR-TAF

Αεροδρόμια :

Διεθνές Αεροδρόμιο Χίθροου

Λονδίνο Χίθροου, Αγγλία

γεωγραφικό πλάτος: 51-29N, γεωγραφικό μήκος: 000-27W, υψόμετρο: 24 μ

Παρών καιρός

Η αναφορά έγινε 36 λεπτά πριν, στις 00:20 UTC
Άνεμος 7 kt από Β, μεταβλητός μεταξύ και Β/BA
Θερμοκρασία 12°C
Υγρασία 76%
Πίεση 1032 hPa
Ορατότητα 10 χλμ και άνω
Νεφοσκεπής σε ύψος 2500 πόδια

METAR: EGLL 220020Z AUTO 36007KT 320V030 9999 OVC025 12/08 Q1032 NOSIG

Χρόνος: 01:56 (00:56 UTC)

Πρόγνωση Καιρού

Η αναφορά έγινε 1 ώρα και 56 λεπτά πριν, στις 23:00 UTC
Η πρόγνωση ισχύει από τις 22 στις 00 UTC έως τις 23 στις 06 UTC
Άνεμος 10 kt από Β
Ορατότητα 10 χλμ και άνω
Λίγα νέφη σε ύψος 4500 πόδια
Καθιστάμενος
από 22 στις 15 UTC έως τις 22 στις 18 UTC
Άνεμος 6 kt από

TAF: EGLL 212300Z 2200/2306 01010KT 9999 FEW045 BECMG 2215/2218 31006KT

Μετεωρολογικές αναφορές και προγνώσεις για περισσότερα από 4000 αεροδρόμια (δελτία METAR και TAF).

Οι διαθέσιμοι σταθμοί απεικονίζονται στο χάρτη με κίτρινες και κόκκινες κουκκίδες.

Μετακινήστε το ποντίκι πάνω από τις κουκκίδες για να δείτε το όνομα του σταθμού.

Στη συνέχεια, κάντε κλικ για να δείτε τις μετεωρολογικές αναφορές και τις προγνώσεις καιρού.

Για να αλλάξετε το χάρτη: κάντε κλικ στα πράσινα κουμπιά με τον μαύρο σταυρό για να ζουμάρετε, στο πράσινο κουμπί με την παύλα για να αφαιρέσετε το ζουμ ή στα πράσινα βέλη για να αντιπαραβάλλετε χάρτες.


METAR-TAF: